Flight Track Log - Related Links

Times and Time Zones

All times are in EDT time to prevent confusion due to time zone crossing. See the TAM3387 flight status page for this flight to view local times or setup timezone preferences in your user account.

Time Position Orientation Groundspeed Altitude Reporting Facility
EDT Latitude Longitude Course Direction KTS MPH feet Rate Location/Type
Sat 06:21:43 AM -1.3900 -48.4780 North  Level FlightAware ADS-B
Sat 06:24:06 AM -1.3890 -48.4780 360° North 8 9 58 Level FlightAware ADS-B
Sat 06:24:36 AM -1.3880 -48.4780 360° North 14 16 76 Level FlightAware ADS-B
Sat 06:26:09 AM -1.3870 -48.4810 288° West 10 12 81 Level FlightAware ADS-B
Sat 06:28:00 AM -1.5832 -48.4642 175° South  Level Estimated
Sat 06:29:00 AM -1.6892 -48.4551 175° South  Level Estimated
Sat 06:30:00 AM -1.7952 -48.4460 175° South  Level Estimated
Sat 06:31:00 AM -1.9012 -48.4369 175° South  Level Estimated
Sat 06:31:29 AM -1.3840 -48.4810 175° South 100 115  Level FlightAware ADS-B
Sat 06:31:59 AM -1.3680 -48.4640 47° Northeast 158 182 600 1,309 Climbing FlightAware ADS-B
Sat 06:32:24 AM -1.3570 -48.4530 45° Northeast 164 189 1,200 1,075 Climbing FlightAware ADS-B
Sat 06:33:06 AM -1.3510 -48.4280 77° East 208 239 1,800 814 Climbing FlightAware ADS-B
Sat 06:33:23 AM -1.3620 -48.4160 133° Southeast 235 270 2,000 923 Climbing FlightAware ADS-B
Sat 06:33:32 AM -1.3760 -48.4120 164° South 259 298 2,200 2,000 Climbing FlightAware ADS-B
Sat 06:33:53 AM -1.3990 -48.4170 192° South 280 322 3,000 3,067 Climbing FlightAware ADS-B
Sat 06:34:17 AM -1.4340 -48.4370 210° Southwest 282 325 4,500 2,941 Climbing FlightAware ADS-B
Sat 06:34:44 AM -1.4620 -48.4520 208° Southwest 279 321 5,500 2,200 Climbing FlightAware ADS-B
Sat 06:35:17 AM -1.4960 -48.4710 209° Southwest 283 326 6,700 2,143 Climbing FlightAware ADS-B
Sat 06:35:40 AM -1.5210 -48.4780 196° South 278 320 7,500 2,372 Climbing FlightAware ADS-B
Sat 06:36:00 AM -1.5570 -48.4770 178° South 284 327 8,400 2,533 Climbing FlightAware ADS-B
Sat 06:36:25 AM -1.5940 -48.4750 177° South 291 335 9,400 1,913 Climbing FlightAware ADS-B
Sat 06:37:09 AM -1.6590 -48.4740 179° South 314 361 10,600 1,215 Climbing FlightAware ADS-B
Sat 06:37:44 AM -1.7060 -48.4740 180° South 342 394 11,000 1,342 Climbing FlightAware ADS-B
Sat 06:38:25 AM -1.7740 -48.4730 179° South 355 409 12,300 1,535 Climbing FlightAware ADS-B
Sat 06:39:10 AM -1.8360 -48.4720 179° South 366 421 13,200 1,568 Climbing FlightAware ADS-B
Sat 06:39:53 AM -1.9210 -48.4710 179° South 375 432 14,600 1,256 Climbing FlightAware ADS-B
Sat 06:40:36 AM -1.9920 -48.4700 179° South 375 432 15,000 1,586 Climbing FlightAware ADS-B
Sat 06:41:20 AM -2.0800 -48.4690 179° South 394 453 16,900 2,071 Climbing FlightAware ADS-B
Sat 06:42:00 AM -2.1510 -48.4680 179° South 396 456 17,900 1,360 Climbing FlightAware ADS-B
Sat 06:42:35 AM -2.2180 -48.4670 179° South 403 464 18,600 1,342 Climbing FlightAware ADS-B
Sat 06:43:16 AM -2.3030 -48.4660 179° South 410 472 19,600 1,425 Climbing FlightAware ADS-B
Sat 06:43:55 AM -2.3700 -48.4650 179° South 411 473 20,500 1,146 Climbing FlightAware ADS-B
Sat 06:44:45 AM -2.4570 -48.4640 179° South 415 478 21,300 833 Climbing FlightAware ADS-B
Sat 06:45:43 AM -2.5460 -48.4620 179° South 412 474 22,000 1,163 Climbing FlightAware ADS-B
Sat 06:46:23 AM -2.6230 -48.4620 180° South 419 482 23,200 1,714 Climbing FlightAware ADS-B
Sat 06:47:07 AM -2.7290 -48.4600 179° South 404 465 24,400 889 Climbing FlightAware ADS-B
Sat 06:47:44 AM -2.7880 -48.4590 179° South 404 465 24,400  Level FlightAware ADS-B
Sat 06:48:20 AM -2.8450 -48.4580 179° South 404 465 24,400  Level FlightAware ADS-B
Sat 06:49:08 AM -2.9210 -48.4570 179° South 404 465 24,400 232 Level FlightAware ADS-B
Sat 06:49:25 AM -2.6890 -48.4610 359° North 26,600 236 Climbing FlightAware ADS-B
Sat 06:52:00 AM -2.9628 -48.4363 175° South  Level Estimated
Sat 06:53:00 AM -3.0688 -48.4268 175° South  Level Estimated
Sat 06:54:00 AM -3.1748 -48.4172 175° South  Level Estimated
Sat 06:55:00 AM -3.2808 -48.4076 175° South  Level Estimated
Sat 06:56:00 AM -3.3868 -48.3981 175° South  Level Estimated
Sat 06:57:00 AM -3.4927 -48.3885 175° South  Level Estimated
Sat 06:58:00 AM -3.5987 -48.3789 175° South  Level Estimated
Sat 06:59:00 AM -3.7047 -48.3694 175° South  Level Estimated
Sat 07:00:00 AM -3.8107 -48.3598 175° South  Level Estimated
Sat 07:01:00 AM -3.9167 -48.3502 175° South  Level Estimated
Sat 07:02:00 AM -4.0227 -48.3407 175° South  Level Estimated
Sat 07:03:00 AM -4.1287 -48.3311 175° South  Level Estimated
Sat 07:04:00 AM -4.2347 -48.3215 175° South  Level Estimated
Sat 07:05:00 AM -4.3407 -48.3119 175° South  Level Estimated
Sat 07:06:00 AM -4.4467 -48.3023 175° South  Level Estimated
Sat 07:07:00 AM -4.5526 -48.2927 175° South  Level Estimated
Sat 07:08:00 AM -4.6586 -48.2831 175° South  Level Estimated
Sat 07:09:00 AM -4.7646 -48.2735 175° South  Level Estimated
Sat 07:10:00 AM -4.8706 -48.2640 175° South  Level Estimated
Sat 07:11:00 AM -4.9766 -48.2543 175° South  Level Estimated
Sat 07:12:00 AM -5.0826 -48.2448 175° South  Level Estimated
Sat 07:13:00 AM -5.1886 -48.2351 175° South  Level Estimated
Sat 07:14:00 AM -5.2946 -48.2255 175° South  Level Estimated
Sat 07:15:00 AM -5.4006 -48.2159 175° South  Level Estimated
Sat 07:16:00 AM -5.5066 -48.2063 175° South  Level Estimated
Sat 07:17:00 AM -5.6125 -48.1967 175° South  Level Estimated
Sat 07:18:00 AM -5.7185 -48.1871 175° South  Level Estimated
Sat 07:19:00 AM -5.8245 -48.1774 175° South  Level Estimated
Sat 07:20:00 AM -5.9305 -48.1678 175° South  Level Estimated
Sat 07:21:00 AM -6.0365 -48.1582 175° South  Level Estimated
Sat 07:22:00 AM -6.1425 -48.1485 175° South  Level Estimated
Sat 07:23:00 AM -6.2484 -48.1389 175° South  Level Estimated
Sat 07:24:00 AM -6.3544 -48.1292 175° South  Level Estimated
Sat 07:25:00 AM -6.4604 -48.1196 175° South  Level Estimated
Sat 07:26:00 AM -6.5664 -48.1099 175° South  Level Estimated
Sat 07:27:00 AM -6.6724 -48.1003 175° South  Level Estimated
Sat 07:28:00 AM -6.7783 -48.0906 175° South  Level Estimated
Sat 07:29:00 AM -6.8843 -48.0809 175° South  Level Estimated
Sat 07:30:00 AM -6.9903 -48.0713 175° South  Level Estimated
Sat 07:31:00 AM -7.0963 -48.0616 175° South  Level Estimated
Sat 07:32:00 AM -7.2023 -48.0519 175° South  Level Estimated
Sat 07:33:00 AM -7.3082 -48.0422 175° South  Level Estimated
Sat 07:34:00 AM -7.4142 -48.0325 175° South  Level Estimated
Sat 07:34:05 AM -8.4680 -48.3610 175° South 436 502 35,000  Level FlightAware ADS-B
Sat 07:34:37 AM -8.5260 -48.3610 180° South 436 502 35,000  Level FlightAware ADS-B
Sat 07:35:23 AM -8.6210 -48.3610 180° South 435 501 35,000  Level FlightAware ADS-B
Sat 07:36:07 AM -8.7020 -48.3610 180° South 434 499 35,000  Level FlightAware ADS-B
Sat 07:36:43 AM -8.7640 -48.3610 180° South 434 499 35,000  Level FlightAware ADS-B
Sat 07:37:30 AM -8.8530 -48.3610 180° South 433 498 35,000  Level FlightAware ADS-B
Sat 07:38:23 AM -8.9870 -48.3600 180° South 433 498 35,000  Level FlightAware ADS-B
Sat 07:39:03 AM -9.0620 -48.3600 180° South 433 498 35,000  Level FlightAware ADS-B
Sat 07:39:38 AM -9.1370 -48.3600 180° South 433 498 35,000  Level FlightAware ADS-B
Sat 07:40:23 AM -9.2280 -48.3600 180° South 432 497 35,000  Level FlightAware ADS-B
Sat 07:41:19 AM -9.3350 -48.3600 180° South 432 497 35,000  Level FlightAware ADS-B
Sat 07:41:53 AM -9.4050 -48.3600 180° South 432 497 35,000  Level FlightAware ADS-B
Sat 07:42:50 AM -9.5080 -48.3600 180° South 432 497 35,000  Level FlightAware ADS-B
Sat 07:43:30 AM -9.5800 -48.3590 179° South 432 497 35,000  Level FlightAware ADS-B
Sat 07:44:33 AM -9.6940 -48.3580 180° South 432 497 35,000  Level FlightAware ADS-B
Sat 07:45:16 AM -9.7670 -48.3580 180° South 433 498 35,000  Level FlightAware ADS-B
Sat 07:46:03 AM -9.8480 -48.3570 179° South 433 498 35,000  Level FlightAware ADS-B
Sat 07:46:37 AM -9.8040 -48.3590 357° North 434 499 35,000  Level FlightAware ADS-B
Sat 07:47:16 AM -9.8710 -48.3580 179° South 434 499 35,000  Level FlightAware ADS-B
Sat 07:48:16 AM -9.9730 -48.3560 179° South 434 499 35,000  Level FlightAware ADS-B
Sat 07:48:58 AM -10.0450 -48.3550 179° South 434 499 35,000  Level FlightAware ADS-B
Sat 07:49:39 AM -10.1150 -48.3530 178° South 434 499 35,000  Level FlightAware ADS-B
Sat 07:50:15 AM -10.1760 -48.3520 179° South 434 499 35,000  Level FlightAware ADS-B
Sat 07:50:52 AM -10.2390 -48.3510 179° South 434 499 35,000  Level FlightAware ADS-B
Sat 07:51:32 AM -9.8040 -48.3590 359° North 436 502 35,000  Level FlightAware ADS-B
Sat 07:52:51 AM -10.7200 -48.3320 178° South 436 502 35,000  Level FlightAware ADS-B
Sat 07:53:26 AM -10.7970 -48.3270 176° South 437 503 35,000  Level FlightAware ADS-B
Sat 07:54:53 AM -10.9580 -48.3180 177° South 438 504 35,000  Level FlightAware ADS-B
Sat 07:55:36 AM -11.0700 -48.3120 177° South 438 504 35,000  Level FlightAware ADS-B
Sat 07:56:25 AM -11.1650 -48.3060 176° South 437 503 35,000  Level FlightAware ADS-B
Sat 07:57:06 AM -11.2510 -48.3010 177° South 436 502 35,000  Level FlightAware ADS-B
Sat 07:57:36 AM -11.3040 -48.2980 177° South 435 501 35,000  Level FlightAware ADS-B
Sat 07:58:19 AM -11.3720 -48.2940 177° South 435 501 35,000  Level FlightAware ADS-B
Sat 07:59:28 AM -11.5040 -48.2860 177° South 435 501 35,000  Level FlightAware ADS-B
Sat 08:00:10 AM -11.5720 -48.2810 176° South 435 501 35,000  Level FlightAware ADS-B
Sat 08:00:58 AM -11.6530 -48.2760 177° South 435 501 35,000  Level FlightAware ADS-B
Sat 08:01:34 AM -11.7150 -48.2710 175° South 435 501 35,000  Level FlightAware ADS-B
Sat 08:02:55 AM -11.5290 -48.2840 356° North 439 505 35,000  Level FlightAware ADS-B
Sat 08:03:37 AM -11.6010 -48.2790 176° South 439 505 35,000  Level FlightAware ADS-B
Sat 08:04:18 AM -11.5790 -48.2810 355° North 439 505 35,000  Level FlightAware ADS-B
Sat 08:04:50 AM -12.1670 -48.2460 177° South 438 504 35,000  Level FlightAware ADS-B
Sat 08:05:33 AM -12.2670 -48.2400 177° South 438 504 35,000  Level FlightAware ADS-B
Sat 08:06:28 AM -12.3850 -48.2330 177° South 436 502 35,000  Level FlightAware ADS-B
Sat 08:07:26 AM -12.5110 -48.2260 177° South 435 501 35,000  Level FlightAware ADS-B
Sat 08:08:07 AM -12.5890 -48.2210 176° South 435 501 35,000  Level FlightAware ADS-B
Sat 08:08:53 AM -12.6830 -48.2150 176° South 435 501 35,000  Level FlightAware ADS-B
Sat 08:09:27 AM -12.7460 -48.2120 177° South 435 501 35,000  Level FlightAware ADS-B
Sat 08:10:22 AM -12.8450 -48.2060 177° South 434 499 35,000  Level FlightAware ADS-B
Sat 08:10:59 AM -12.9080 -48.2010 176° South 434 499 35,000  Level FlightAware ADS-B
Sat 08:11:35 AM -12.9690 -48.1970 176° South 434 499 35,000  Level FlightAware ADS-B
Sat 08:12:24 AM -13.0520 -48.1910 176° South 434 499 35,000  Level FlightAware ADS-B
Sat 08:13:01 AM -13.1150 -48.1860 176° South 434 499 35,000  Level FlightAware ADS-B
Sat 08:13:49 AM -13.1970 -48.1800 176° South 434 499 35,000  Level FlightAware ADS-B
Sat 08:14:28 AM -13.2640 -48.1760 177° South 434 499 35,000  Level FlightAware ADS-B
Sat 08:15:06 AM -13.3280 -48.1710 176° South 434 499 35,000  Level FlightAware ADS-B
Sat 08:15:55 AM -13.4120 -48.1650 176° South 434 499 35,000  Level FlightAware ADS-B
Sat 08:16:34 AM -13.4780 -48.1600 176° South 434 499 35,000  Level FlightAware ADS-B
Sat 08:17:10 AM -13.5390 -48.1560 176° South 434 499 35,000  Level FlightAware ADS-B
Sat 08:17:59 AM -13.6230 -48.1500 176° South 434 499 35,000  Level FlightAware ADS-B
Sat 08:18:36 AM -13.6860 -48.1450 176° South 434 499 35,000  Level FlightAware ADS-B
Sat 08:19:24 AM -13.7680 -48.1390 176° South 434 499 35,000  Level FlightAware ADS-B
Sat 08:20:01 AM -13.8310 -48.1350 176° South 434 499 35,000 233 Level FlightAware ADS-B
Sat 08:22:00 AM -14.0394 -48.1007 171° South  Level Estimated
Sat 08:23:00 AM -14.1445 -48.0833 171° South  Level Estimated
Sat 08:23:42 AM -14.4640 -48.1070 171° South 429 494 36,000  Level FlightAware ADS-B
Sat 08:24:22 AM -14.5450 -48.1030 177° South 430 495 36,000  Level FlightAware ADS-B
Sat 08:24:58 AM -14.6170 -48.0980 176° South 431 496 36,000  Level FlightAware ADS-B
Sat 08:25:55 AM -14.7210 -48.0940 178° South 430 495 36,000  Level FlightAware ADS-B
Sat 08:26:37 AM -14.8000 -48.0900 177° South 430 495 36,000  Level FlightAware ADS-B
Sat 08:27:25 AM -14.8860 -48.0830 176° South 435 501 36,000  Level FlightAware ADS-B
Sat 08:28:17 AM -14.9830 -48.0700 173° South 434 499 36,000  Level FlightAware ADS-B
Sat 08:28:59 AM -15.0960 -48.0580 174° South 433 498 36,000  Level FlightAware ADS-B
Sat 08:29:40 AM -15.1800 -48.0490 174° South 434 499 36,000  Level FlightAware ADS-B
Sat 08:30:20 AM -15.2610 -48.0390 173° South 434 499 36,000  Level FlightAware ADS-B
Sat 08:31:02 AM -15.3430 -48.0300 174° South 434 499 36,000  Level FlightAware ADS-B
Sat 08:31:43 AM -15.4030 -48.0240 174° South 432 497 36,000  Level FlightAware ADS-B
Sat 08:32:28 AM -15.4910 -48.0140 174° South 431 496 36,000  Level FlightAware ADS-B
Sat 08:33:10 AM -15.5740 -48.0050 174° South 430 495 36,000  Level FlightAware ADS-B
Sat 08:33:53 AM -15.6740 -47.9940 174° South 429 494 36,000  Level FlightAware ADS-B
Sat 08:34:32 AM -15.7640 -47.9840 174° South 429 494 36,000  Level FlightAware ADS-B
Sat 08:35:12 AM -15.8420 -47.9750 174° South 430 495 36,000  Level FlightAware ADS-B
Sat 08:35:57 AM -15.9330 -47.9650 174° South 431 496 36,000  Level FlightAware ADS-B
Sat 08:36:25 AM -15.9860 -47.9590 174° South 431 496 36,000  Level FlightAware ADS-B
Sat 08:37:09 AM -16.0740 -47.9490 174° South 430 495 36,000  Level FlightAware ADS-B
Sat 08:37:51 AM -16.1580 -47.9400 174° South 431 496 36,000  Level FlightAware ADS-B
Sat 08:38:31 AM -16.2260 -47.9320 174° South 431 496 36,000  Level FlightAware ADS-B
Sat 08:39:13 AM -16.2970 -47.9240 174° South 431 496 36,000  Level FlightAware ADS-B
Sat 08:40:08 AM -16.4000 -47.9120 174° South 430 495 36,000  Level FlightAware ADS-B
Sat 08:40:49 AM -16.4850 -47.9030 174° South 429 494 36,000  Level FlightAware ADS-B
Sat 08:41:24 AM -16.5520 -47.8950 173° South 429 494 36,000  Level FlightAware ADS-B
Sat 08:42:23 AM -16.6880 -47.8800 174° South 430 495 36,000  Level FlightAware ADS-B
Sat 08:43:14 AM -16.7970 -47.8680 174° South 430 495 36,000  Level FlightAware ADS-B
Sat 08:43:54 AM -16.8780 -47.8580 173° South 431 496 36,000  Level FlightAware ADS-B
Sat 08:44:34 AM -16.9460 -47.8510 174° South 431 496 36,000  Level FlightAware ADS-B
Sat 08:45:12 AM -17.0100 -47.8420 172° South 431 496 36,000  Level FlightAware ADS-B
Sat 08:45:59 AM -17.1040 -47.8330 175° South 431 496 36,000  Level FlightAware ADS-B
Sat 08:46:53 AM -17.1920 -47.8220 173° South 431 496 36,000  Level FlightAware ADS-B
Sat 08:47:30 AM -17.3080 -47.8090 174° South 432 497 36,000  Level FlightAware ADS-B
Sat 08:48:14 AM -17.3970 -47.8000 174° South 430 495 36,000  Level FlightAware ADS-B
Sat 08:48:54 AM -17.4760 -47.7910 174° South 430 495 36,000  Level FlightAware ADS-B
Sat 08:49:39 AM -17.5480 -47.7820 173° South 431 496 36,000  Level FlightAware ADS-B
Sat 08:50:36 AM -17.6600 -47.7700 174° South 432 497 36,000  Level FlightAware ADS-B
Sat 08:51:12 AM -17.7520 -47.7590 174° South 435 501 36,000  Level FlightAware ADS-B
Sat 08:51:58 AM -17.8430 -47.7490 174° South 438 504 36,000  Level FlightAware ADS-B
Sat 08:52:38 AM -17.9250 -47.7390 173° South 440 506 36,000  Level FlightAware ADS-B
Sat 08:53:30 AM -18.0310 -47.7270 174° South 441 507 36,000  Level FlightAware ADS-B
Sat 08:54:10 AM -18.1120 -47.7180 174° South 442 509 36,000  Level FlightAware ADS-B
Sat 08:54:52 AM -18.1750 -47.7110 174° South 443 510 36,000  Level FlightAware ADS-B
Sat 08:55:27 AM -18.2430 -47.7030 174° South 444 511 36,000  Level FlightAware ADS-B
Sat 08:56:19 AM -18.3510 -47.6910 174° South 445 512 36,000  Level FlightAware ADS-B
Sat 08:57:05 AM -18.4690 -47.6770 174° South 445 512 36,000  Level FlightAware ADS-B
Sat 08:57:49 AM -18.5610 -47.6660 174° South 444 511 36,000  Level FlightAware ADS-B
Sat 08:58:29 AM -18.6410 -47.6570 174° South 444 511 36,000  Level FlightAware ADS-B
Sat 08:59:19 AM -18.7200 -47.6480 174° South 442 509 36,000  Level FlightAware ADS-B
Sat 09:00:14 AM -18.8580 -47.6360 175° South 442 509 36,000  Level FlightAware ADS-B
Sat 09:00:57 AM -18.9450 -47.6280 175° South 442 509 36,000  Level FlightAware ADS-B
Sat 09:01:32 AM -19.0190 -47.6220 176° South 442 509 36,000  Level FlightAware ADS-B
Sat 09:02:16 AM -19.0830 -47.6160 175° South 442 509 36,000  Level FlightAware ADS-B
Sat 09:02:55 AM -19.1610 -47.6090 175° South 443 510 36,000  Level FlightAware ADS-B
Sat 09:03:38 AM -19.2760 -47.5980 175° South 444 511 36,000  Level FlightAware ADS-B
Sat 09:04:14 AM -19.3500 -47.5910 175° South 442 509 36,000  Level FlightAware ADS-B
Sat 09:05:04 AM -19.4520 -47.5820 175° South 438 504 36,000  Level FlightAware ADS-B
Sat 09:05:42 AM -19.5050 -47.5770 175° South 436 502 36,000  Level FlightAware ADS-B
Sat 09:06:28 AM -19.5930 -47.5690 175° South 435 501 36,000  Level FlightAware ADS-B
Sat 09:07:08 AM -19.6740 -47.5610 175° South 435 501 36,000  Level FlightAware ADS-B
Sat 09:07:39 AM -19.7630 -47.5530 175° South 436 502 36,000  Level FlightAware ADS-B
Sat 09:08:23 AM -19.8520 -47.5450 175° South 437 503 36,000  Level FlightAware ADS-B
Sat 09:09:07 AM -19.9410 -47.5360 175° South 437 503 36,000  Level FlightAware ADS-B
Sat 09:09:39 AM -19.9810 -47.5330 176° South 437 503 36,000  Level FlightAware ADS-B
Sat 09:10:20 AM -20.0610 -47.5250 175° South 437 503 36,000  Level FlightAware ADS-B
Sat 09:10:59 AM -20.1420 -47.5180 175° South 436 502 36,000  Level FlightAware ADS-B
Sat 09:11:46 AM -20.2630 -47.5070 175° South 436 502 36,000  Level FlightAware ADS-B
Sat 09:12:28 AM -20.3450 -47.4990 175° South 436 502 36,000  Level FlightAware ADS-B
Sat 09:13:11 AM -20.4290 -47.4910 175° South 436 502 36,000  Level FlightAware ADS-B
Sat 09:14:02 AM -20.5140 -47.4830 175° South 437 503 36,000  Level FlightAware ADS-B
Sat 09:14:42 AM -20.5910 -47.4760 175° South 437 503 36,000  Level FlightAware ADS-B
Sat 09:15:18 AM -20.6640 -47.4690 175° South 438 504 36,000  Level FlightAware ADS-B
Sat 09:16:08 AM -20.7940 -47.4570 175° South 441 507 36,000  Level FlightAware ADS-B
Sat 09:16:41 AM -20.8600 -47.4510 175° South 442 509 36,000  Level FlightAware ADS-B
Sat 09:17:25 AM -20.9510 -47.4420 175° South 443 510 36,000  Level FlightAware ADS-B
Sat 09:18:04 AM -21.0300 -47.4350 175° South 444 511 36,000  Level FlightAware ADS-B
Sat 09:18:50 AM -21.1240 -47.4260 175° South 444 511 36,000  Level FlightAware ADS-B
Sat 09:19:30 AM -21.2070 -47.4140 172° South 453 521 36,000  Level FlightAware ADS-B
Sat 09:20:14 AM -21.2980 -47.3930 168° South 453 521 36,000  Level FlightAware ADS-B
Sat 09:20:56 AM -21.3830 -47.3730 168° South 452 520 36,000  Level FlightAware ADS-B
Sat 09:21:36 AM -21.4660 -47.3550 169° South 453 521 36,000  Level FlightAware ADS-B
Sat 09:22:12 AM -21.5400 -47.3380 168° South 453 521 36,000 -145 Level FlightAware ADS-B
Sat 09:22:59 AM -21.6100 -47.3210 167° South 452 520 35,800 -684 Descending FlightAware ADS-B
Sat 09:24:06 AM -21.7480 -47.2890 168° South 458 527 34,700 -1,527 Descending FlightAware ADS-B
Sat 09:24:49 AM -21.8370 -47.2690 168° South 457 526 33,000 -2,250 Descending FlightAware ADS-B
Sat 09:25:34 AM -21.9270 -47.2480 168° South 449 517 31,400 -2,483 Descending FlightAware ADS-B
Sat 09:26:16 AM -22.0410 -47.2220 168° South 441 507 29,400 -2,488 Descending FlightAware ADS-B
Sat 09:26:56 AM -22.1200 -47.2030 167° South 434 499 28,000 -2,023 Descending FlightAware ADS-B
Sat 09:27:42 AM -22.2080 -47.1830 168° South 424 488 26,500 -2,000 Descending FlightAware ADS-B
Sat 09:28:17 AM -22.2740 -47.1670 167° South 417 480 25,300 -2,024 Descending FlightAware ADS-B
Sat 09:29:05 AM -22.3670 -47.1460 168° South 409 471 23,700 -1,786 Descending FlightAware ADS-B
Sat 09:29:41 AM -22.4220 -47.1330 168° South 406 467 22,800 -1,630 Descending FlightAware ADS-B
Sat 09:30:26 AM -22.4920 -47.1170 168° South 401 461 21,500 -1,756 Descending FlightAware ADS-B
Sat 09:31:03 AM -22.5570 -47.1010 167° South 397 457 20,400 -1,807 Descending FlightAware ADS-B
Sat 09:31:49 AM -22.6350 -47.0720 161° South 397 457 19,000 -1,926 Descending FlightAware ADS-B
Sat 09:32:24 AM -22.7060 -47.0420 159° South 391 450 17,800 -1,800 Descending FlightAware ADS-B
Sat 09:33:09 AM -22.7940 -47.0060 159° South 361 415 16,600 -1,694 Descending FlightAware ADS-B
Sat 09:33:49 AM -22.8550 -46.9800 159° South 348 400 15,400 -1,571 Descending FlightAware ADS-B
Sat 09:34:33 AM -22.9210 -46.9530 159° South 338 389 14,400 -1,357 Descending FlightAware ADS-B
Sat 09:35:13 AM -22.9770 -46.9290 158° South 312 359 13,500 -1,301 Descending FlightAware ADS-B
Sat 09:35:56 AM -23.0170 -46.9120 159° South 312 359 12,600 -1,063 Descending FlightAware ADS-B
Sat 09:36:32 AM -23.0640 -46.8920 159° South 295 339 12,100 -462 Descending FlightAware ADS-B
Sat 09:37:14 AM -23.1090 -46.8730 159° South 289 333 12,000 -957 Descending FlightAware ADS-B
Sat 09:37:41 AM -23.1210 -46.8220 104° East 294 338 11,000 -952 Descending FlightAware ADS-B
Sat 09:38:17 AM -23.1300 -46.7680 100° East 294 338 11,000  Level FlightAware ADS-B
Sat 09:38:49 AM -23.1500 -46.7090 110° East 286 329 11,000  Level FlightAware ADS-B
Sat 09:39:06 AM -23.1680 -46.6980 151° Southeast 276 318 11,000 -414 Level FlightAware ADS-B
Sat 09:39:47 AM -23.2200 -46.6900 172° South 270 311 10,600 -1,373 Descending FlightAware ADS-B
Sat 09:40:29 AM -23.2710 -46.6830 173° South 274 315 9,100 -2,164 Descending FlightAware ADS-B
Sat 09:40:48 AM -23.2950 -46.6800 173° South 274 315 8,400 -2,182 Descending FlightAware ADS-B
Sat 09:41:13 AM -23.3270 -46.6770 175° South 275 316 7,500 -1,472 Descending FlightAware ADS-B
Sat 09:41:41 AM -23.3470 -46.6760 177° South 262 302 7,100 -1,000 Descending FlightAware ADS-B
Sat 09:42:01 AM -23.3740 -46.6770 182° South 254 292 6,700 -1,102 Descending FlightAware ADS-B
Sat 09:42:30 AM -23.4060 -46.6790 183° South 237 273 6,200 -1,154 Descending FlightAware ADS-B
Sat 09:42:53 AM -23.4240 -46.6800 183° South 235 270 5,700 -842 Descending FlightAware ADS-B
Sat 09:43:27 AM -23.4640 -46.6740 172° South 223 257 5,400 -706 Descending FlightAware ADS-B
Sat 09:44:18 AM -23.4720 -46.6130 98° East 189 217 4,700 -880 Descending FlightAware ADS-B
Sat 09:44:42 AM -23.4670 -46.5900 77° East 188 216 4,300 -1,019 Descending FlightAware ADS-B
Sat 09:45:11 AM -23.4600 -46.5660 72° East 170 196 3,800 -941 Descending FlightAware ADS-B
Sat 09:45:33 AM -23.4560 -46.5510 74° East 159 183 3,500 -615 Descending FlightAware ADS-B
Sat 09:45:50 AM -23.4540 -46.5430 75° East 157 181 3,400 -571 Descending FlightAware ADS-B
Sat 09:46:15 AM -23.4490 -46.5260 72° East 154 177 3,100 -421 Descending FlightAware ADS-B
Sat 09:46:47 AM -23.4440 -46.5050 75° East 155 178 3,000 -737 Descending FlightAware ADS-B
Sat 09:47:12 AM -23.4390 -46.4870 73° East 152 175 2,400 -1,440 Descending FlightAware ADS-B
Sat 09:47:38 AM -23.4340 -46.4710 71° East 33 38 -5,538 Descending FlightAware ADS-B
Sat 09:48:12 AM -23.4320 -46.4670 61° Northeast 27 31  Level FlightAware ADS-B
Sat 09:49:06 AM -23.4300 -46.4670 360° North 13 15  Level FlightAware ADS-B
Sat 09:49:30 AM -23.4290 -46.4680 317° Northwest 12 14  Level FlightAware ADS-B
Sat 09:49:56 AM -23.4290 -46.4690 270° West 13 15  Level FlightAware ADS-B
Sat 09:50:27 AM -23.4290 -46.4710 270° West 15 17  Level FlightAware ADS-B
Sat 09:50:47 AM -23.4290 -46.4720 270° West 16 18  Level FlightAware ADS-B
Sat 09:51:03 AM -23.4300 -46.4740 241° Southwest 17 20  Level FlightAware ADS-B
Sat 09:51:35 AM -23.4310 -46.4760 241° Southwest 7 8  Level FlightAware ADS-B
Sat 09:52:45 AM -23.4310 -46.4780 270° West 9 10  Level FlightAware ADS-B
Sat 09:53:25 AM -23.4310 -46.4790 270° West 6 7  Level FlightAware ADS-B
Sat 09:56:00 AM -23.4321 -46.4695 97° East  Level Estimated

Login

Don't have an account? Register now (free) for customized features, flight alerts, and more!